Time;durP1;ratioP1;P1;durP2;ratioP2;P2;SDS_P1;SDS_P2;PMS_P1;PMS_P2;Temp;Humidity;BMP_temperature;BMP_pressure;BME280_temperature;BME280_humidity;BME280_pressure;Samples;Min_cycle;Max_cycle;Signal;HPM_P1;HPM_P2
2022/04/09 00:00:45;;;;;;;9.57;1.85;;;3.50;99.90;;;;;;5116029;27;19923;-90
2022/04/09 00:03:11;;;;;;;7.95;1.73;;;3.50;99.90;;;;;;5104913;27;20103;-90
2022/04/09 00:05:37;;;;;;;7.82;1.85;;;3.80;99.90;;;;;;5122050;27;20571;-90
2022/04/09 00:08:03;;;;;;;8.85;2.50;;;3.30;99.90;;;;;;5103653;27;20043;-87
2022/04/09 00:10:28;;;;;;;13.00;2.40;;;3.20;99.90;;;;;;5121568;27;20130;-87
2022/04/09 00:12:54;;;;;;;9.05;1.90;;;3.80;99.90;;;;;;5103171;27;20062;-89
2022/04/09 00:15:20;;;;;;;13.00;2.03;;;3.10;99.90;;;;;;5092802;28;20055;-89
2022/04/09 00:17:47;;;;;;;13.80;2.22;;;3.70;99.90;;;;;;5103212;28;20378;-88
2022/04/09 00:20:17;;;;;;;10.98;2.50;;;3.00;99.90;;;;;;5085311;28;20075;-89
2022/04/09 00:22:44;;;;;;;20.58;2.80;;;3.00;99.90;;;;;;5102548;28;20100;-88
2022/04/09 00:25:11;;;;;;;11.52;2.45;;;3.10;99.90;;;;;;5101591;28;20159;-88
2022/04/09 00:27:37;;;;;;;17.88;3.35;;;3.10;99.90;;;;;;5099928;28;20040;-88
2022/04/09 00:30:05;;;;;;;14.20;3.05;;;3.20;99.90;;;;;;5067992;28;20129;-87
2022/04/09 00:32:31;;;;;;;10.30;2.22;;;3.20;99.90;;;;;;5085093;28;20044;-86
2022/04/09 00:34:57;;;;;;;15.02;2.60;;;4.30;99.90;;;;;;5100103;28;20103;-86
2022/04/09 00:37:22;;;;;;;11.32;2.20;;;3.90;99.90;;;;;;5101223;28;20051;-88
2022/04/09 00:39:48;;;;;;;6.47;2.17;;;4.70;99.90;;;;;;5099888;28;20493;-89
2022/04/09 00:42:18;;;;;;;7.60;2.00;;;4.50;99.90;;;;;;5066839;28;20048;-88
2022/04/09 00:44:45;;;;;;;6.32;1.60;;;4.30;99.90;;;;;;5101825;28;20089;-88
2022/04/09 00:47:11;;;;;;;10.20;2.65;;;3.50;99.90;;;;;;5094096;28;20086;-89
2022/04/09 00:49:38;;;;;;;9.65;2.13;;;3.40;99.90;;;;;;5094748;28;20086;-90
2022/04/09 00:52:06;;;;;;;9.55;2.17;;;3.60;99.90;;;;;;5110167;28;20051;-87
2022/04/09 00:54:33;;;;;;;6.20;1.70;;;3.30;99.90;;;;;;5092645;28;20043;-89
2022/04/09 00:57:05;;;;;;;11.05;2.40;;;4.00;99.90;;;;;;5093040;28;20090;-90
2022/04/09 00:59:35;;;;;;;11.65;2.17;;;3.20;99.90;;;;;;5090643;28;20105;-90
2022/04/09 01:02:01;;;;;;;5.75;2.10;;;3.10;99.90;;;;;;5073941;28;20048;-84
2022/04/09 01:04:27;;;;;;;;;;;3.00;99.90;;;;;;5102418;28;20499;-89
2022/04/09 01:06:55;;;;;;;8.50;2.50;;;3.80;99.90;;;;;;5093477;28;19920;-90
2022/04/09 01:09:21;;;;;;;14.18;2.38;;;3.80;99.90;;;;;;5076826;28;20052;-88
2022/04/09 01:11:47;;;;;;;16.08;3.22;;;3.40;99.90;;;;;;5110355;28;20393;-86
2022/04/09 01:14:13;;;;;;;9.38;2.35;;;3.00;99.90;;;;;;5109230;28;20117;-89
2022/04/09 01:16:39;;;;;;;14.68;2.75;;;3.00;99.90;;;;;;5111730;28;20504;-87
2022/04/09 01:19:05;;;;;;;11.77;2.28;;;3.10;99.90;;;;;;5093697;28;20103;-84
2022/04/09 01:21:31;;;;;;;15.93;2.40;;;3.20;99.90;;;;;;5130006;27;20123;-85
2022/04/09 01:23:57;;;;;;;9.95;2.90;;;4.00;99.90;;;;;;5131081;27;20086;-89
2022/04/09 01:26:23;;;;;;;13.65;2.88;;;3.30;99.90;;;;;;5131130;27;20050;-90
2022/04/09 01:28:50;;;;;;;14.30;2.17;;;3.30;99.90;;;;;;5112571;27;20051;-89
2022/04/09 01:31:17;;;;;;;9.13;2.10;;;3.40;99.90;;;;;;5130503;27;20216;-87
2022/04/09 01:33:43;;;;;;;8.73;2.15;;;3.50;99.90;;;;;;5129827;27;20043;-88
2022/04/09 01:36:10;;;;;;;12.65;2.15;;;3.50;99.90;;;;;;5129093;27;20609;-88
2022/04/09 01:38:36;;;;;;;10.57;2.03;;;3.60;99.90;;;;;;5109855;28;20169;-87
2022/04/09 01:41:03;;;;;;;8.00;2.15;;;3.50;99.90;;;;;;5075904;28;20055;-87
2022/04/09 01:43:29;;;;;;;13.85;2.95;;;3.90;99.90;;;;;;5090882;28;20047;-86
2022/04/09 01:45:55;;;;;;;8.07;2.05;;;4.60;99.90;;;;;;5114237;27;20556;-86
2022/04/09 01:48:21;;;;;;;12.52;2.80;;;4.40;99.90;;;;;;5130950;27;20069;-86
2022/04/09 01:50:47;;;;;;;10.43;2.28;;;3.30;99.90;;;;;;5129936;27;20054;-86
2022/04/09 01:53:13;;;;;;;;;;;4.40;99.90;;;;;;5103784;28;20043;-87
2022/04/09 01:55:40;;;;;;;9.95;2.45;;;3.30;99.90;;;;;;5092643;28;19930;-86
2022/04/09 01:58:05;;;;;;;;;;;3.20;99.90;;;;;;5108772;28;20388;-82
2022/04/09 02:00:31;;;;;;;16.00;2.80;;;3.20;99.90;;;;;;5092272;28;19927;-87
2022/04/09 02:02:57;;;;;;;11.30;2.40;;;3.50;99.90;;;;;;5109583;28;20389;-87
2022/04/09 02:05:23;;;;;;;11.90;2.65;;;4.20;99.90;;;;;;5091694;28;20044;-87
2022/04/09 02:07:49;;;;;;;14.23;2.35;;;3.20;99.90;;;;;;5092609;28;20051;-86
2022/04/09 02:10:16;;;;;;;10.15;2.53;;;4.00;99.90;;;;;;5124227;27;20047;-87
2022/04/09 02:12:42;;;;;;;11.80;2.25;;;3.20;99.90;;;;;;5111390;27;20429;-87
2022/04/09 02:15:11;;;;;;;12.88;2.63;;;3.20;99.90;;;;;;5128992;27;20051;-83
2022/04/09 02:17:38;;;;;;;9.63;2.15;;;3.30;99.90;;;;;;5127504;27;20054;-88
2022/04/09 02:20:06;;;;;;;15.65;2.58;;;4.60;99.90;;;;;;5108769;28;20061;-88
2022/04/09 02:22:35;;;;;;;12.13;2.90;;;3.30;99.90;;;;;;5108114;28;20083;-85
2022/04/09 02:25:03;;;;;;;11.45;3.25;;;3.40;99.90;;;;;;5092418;28;20051;-85
2022/04/09 02:27:28;;;;;;;18.15;3.15;;;4.00;99.90;;;;;;5090738;28;20058;-87
2022/04/09 02:29:54;;;;;;;10.50;2.40;;;3.90;99.90;;;;;;5092348;28;20043;-87
2022/04/09 02:32:20;;;;;;;9.48;2.33;;;3.50;99.90;;;;;;5109148;28;20055;-87
2022/04/09 02:34:45;;;;;;;8.73;2.53;;;3.40;99.90;;;;;;5112369;28;20071;-86
2022/04/09 02:37:11;;;;;;;14.38;2.63;;;4.00;99.90;;;;;;5094892;28;20077;-85
2022/04/09 02:39:37;;;;;;;9.30;2.88;;;3.80;99.90;;;;;;5095631;28;20047;-86
2022/04/09 02:42:03;;;;;;;11.30;1.98;;;3.30;99.90;;;;;;5111874;28;20057;-87
2022/04/09 02:44:30;;;;;;;9.75;2.35;;;3.00;99.90;;;;;;5129956;27;20154;-86
2022/04/09 02:46:56;;;;;;;16.13;3.17;;;3.50;99.90;;;;;;5133806;27;20043;-86
2022/04/09 02:49:22;;;;;;;11.05;2.28;;;2.80;99.90;;;;;;5129769;27;20051;-87
2022/04/09 02:51:47;;;;;;;7.88;2.22;;;2.70;99.90;;;;;;5130188;27;20051;-87
2022/04/09 02:54:16;;;;;;;16.05;2.70;;;2.70;99.90;;;;;;5135486;27;20049;-86
2022/04/09 02:56:43;;;;;;;11.48;2.20;;;2.90;99.90;;;;;;5133644;27;20134;-85
2022/04/09 02:59:10;;;;;;;9.15;2.13;;;3.60;99.90;;;;;;5115738;27;20039;-88
2022/04/09 03:01:36;;;;;;;9.70;2.15;;;2.60;99.90;;;;;;5116229;27;20055;-86
2022/04/09 03:04:03;;;;;;;9.50;1.80;;;3.80;99.90;;;;;;5113098;28;20047;-87
2022/04/09 03:06:29;;;;;;;10.30;1.88;;;2.50;99.90;;;;;;5095173;28;20092;-87
2022/04/09 03:08:54;;;;;;;9.55;2.17;;;2.40;99.90;;;;;;5112881;28;20051;-87
2022/04/09 03:11:20;;;;;;;7.00;2.10;;;2.40;99.90;;;;;;5112331;28;20052;-86
2022/04/09 03:13:46;;;;;;;9.40;2.40;;;2.40;99.90;;;;;;5122828;27;20055;-87
2022/04/09 03:16:11;;;;;;;9.50;2.17;;;2.90;99.90;;;;;;5132771;27;20050;-83
2022/04/09 03:18:37;;;;;;;6.93;2.20;;;2.40;99.90;;;;;;5115981;27;20419;-85
2022/04/09 03:21:03;;;;;;;13.68;2.10;;;2.30;99.90;;;;;;5132922;27;20051;-86
2022/04/09 03:23:28;;;;;;;9.93;2.72;;;2.90;99.90;;;;;;5115558;27;20054;-84
2022/04/09 03:25:54;;;;;;;6.03;1.80;;;2.20;99.90;;;;;;5133237;27;20043;-87
2022/04/09 03:28:20;;;;;;;5.35;1.88;;;2.20;99.90;;;;;;5114007;27;20042;-88
2022/04/09 03:30:46;;;;;;;11.32;1.92;;;2.20;99.90;;;;;;5132609;27;20519;-88
2022/04/09 03:33:11;;;;;;;8.50;1.48;;;2.80;99.90;;;;;;5115211;27;20051;-87
2022/04/09 03:35:37;;;;;;;12.48;1.90;;;3.40;99.90;;;;;;5114929;27;20061;-87
2022/04/09 03:38:03;;;;;;;5.43;1.75;;;2.20;99.90;;;;;;5098269;27;20108;-86
2022/04/09 03:40:29;;;;;;;7.75;2.00;;;2.20;99.90;;;;;;5132329;27;20043;-85
2022/04/09 03:42:54;;;;;;;7.30;1.80;;;2.20;99.90;;;;;;5131191;27;20049;-86
2022/04/09 03:45:20;;;;;;;4.90;1.67;;;2.80;99.90;;;;;;5132314;27;20484;-85
2022/04/09 03:47:46;;;;;;;11.07;2.15;;;3.00;99.90;;;;;;5132822;27;20039;-86
2022/04/09 03:50:12;;;;;;;10.05;2.05;;;2.20;99.90;;;;;;5114998;27;20133;-87
2022/04/09 03:52:38;;;;;;;6.75;1.55;;;3.20;99.90;;;;;;5114600;27;20509;-87
2022/04/09 03:55:04;;;;;;;7.03;1.85;;;2.30;99.90;;;;;;5115593;27;20039;-86
2022/04/09 03:57:31;;;;;;;;;;;2.30;99.90;;;;;;5129794;27;20049;-87
2022/04/09 03:59:57;;;;;;;10.18;1.80;;;2.40;99.90;;;;;;5098391;27;19923;-87
2022/04/09 04:02:23;;;;;;;10.27;2.45;;;2.40;99.90;;;;;;5131598;27;20129;-85
2022/04/09 04:04:49;;;;;;;10.43;1.60;;;2.40;99.90;;;;;;5114887;27;20096;-84
2022/04/09 04:07:22;;;;;;;4.97;1.88;;;2.40;99.90;;;;;;5132001;27;20396;-83
2022/04/09 04:09:48;;;;;;;4.45;1.60;;;2.80;99.90;;;;;;5132181;27;20062;-87
2022/04/09 04:12:14;;;;;;;10.82;1.70;;;3.40;99.90;;;;;;5131223;27;20080;-87
2022/04/09 04:14:39;;;;;;;8.52;1.75;;;3.10;99.90;;;;;;5112908;27;20059;-87
2022/04/09 04:17:05;;;;;;;6.20;1.38;;;3.30;99.90;;;;;;5132258;27;20054;-88
2022/04/09 04:19:31;;;;;;;6.20;2.03;;;2.90;99.90;;;;;;5114291;27;20074;-87
2022/04/09 04:21:56;;;;;;;9.90;1.80;;;2.50;99.90;;;;;;5097278;27;20167;-87
2022/04/09 04:24:23;;;;;;;4.43;1.30;;;2.70;99.90;;;;;;5114089;27;20415;-87
2022/04/09 04:26:49;;;;;;;10.82;1.90;;;2.50;99.90;;;;;;5131568;27;20057;-86
2022/04/09 04:29:15;;;;;;;10.05;1.40;;;3.30;99.90;;;;;;5114269;27;20051;-86
2022/04/09 04:31:40;;;;;;;5.93;1.52;;;3.10;99.90;;;;;;5130838;27;20492;-88
2022/04/09 04:34:06;;;;;;;6.45;1.30;;;4.00;99.90;;;;;;5127488;27;20031;-88
2022/04/09 04:36:32;;;;;;;7.43;1.60;;;2.60;99.90;;;;;;5131284;27;20147;-88
2022/04/09 04:38:58;;;;;;;8.90;1.58;;;2.60;99.90;;;;;;5114040;27;20039;-84
2022/04/09 04:41:24;;;;;;;8.35;1.23;;;2.80;99.90;;;;;;5131062;27;20047;-87
2022/04/09 04:43:52;;;;;;;6.65;1.80;;;2.60;99.90;;;;;;5112556;27;20046;-87
2022/04/09 04:46:19;;;;;;;6.68;1.33;;;2.80;99.90;;;;;;5131430;27;20051;-85
2022/04/09 04:48:46;;;;;;;7.78;1.48;;;2.50;99.90;;;;;;5131183;27;20047;-88
2022/04/09 04:51:12;;;;;;;5.75;1.48;;;2.50;99.90;;;;;;5130884;27;20120;-88
2022/04/09 04:53:38;;;;;;;8.18;1.58;;;2.50;99.90;;;;;;5129995;27;20539;-89
2022/04/09 04:56:04;;;;;;;9.90;3.70;;;2.30;99.90;;;;;;5131175;27;20043;-87
2022/04/09 04:58:30;;;;;;;7.40;1.80;;;2.20;99.90;;;;;;5112385;27;20091;-88
2022/04/09 05:00:55;;;;;;;6.35;2.80;;;2.20;99.90;;;;;;5131249;27;20121;-87
2022/04/09 05:03:21;;;;;;;7.75;1.52;;;2.20;99.90;;;;;;5130683;27;20063;-84
2022/04/09 05:05:47;;;;;;;9.88;1.85;;;2.70;99.90;;;;;;5130615;27;20068;-88
2022/04/09 05:08:13;;;;;;;6.50;1.60;;;2.20;99.90;;;;;;5113599;27;20130;-88
2022/04/09 05:10:39;;;;;;;3.83;1.45;;;2.20;99.90;;;;;;5130198;27;20047;-86
2022/04/09 05:13:05;;;;;;;6.20;1.77;;;2.30;99.90;;;;;;5112129;27;20057;-88
2022/04/09 05:15:31;;;;;;;;;;;2.30;99.90;;;;;;5130145;27;20381;-86
2022/04/09 05:17:57;;;;;;;5.38;1.50;;;2.30;99.90;;;;;;5130221;27;19979;-86
2022/04/09 05:20:23;;;;;;;8.77;1.85;;;2.60;99.90;;;;;;5109045;28;20096;-85
2022/04/09 05:22:49;;;;;;;10.43;2.67;;;3.20;99.90;;;;;;5093015;28;20051;-87
2022/04/09 05:25:19;;;;;;;11.07;1.80;;;2.60;99.90;;;;;;5076182;28;20043;-87
2022/04/09 05:27:46;;;;;;;7.35;1.73;;;3.70;99.90;;;;;;5115719;27;20087;-89
2022/04/09 05:30:12;;;;;;;6.55;1.85;;;2.80;99.90;;;;;;5096501;27;20081;-87
2022/04/09 05:32:39;;;;;;;8.77;1.80;;;3.00;99.90;;;;;;5112636;27;20047;-86
2022/04/09 05:35:06;;;;;;;7.40;2.45;;;3.10;99.90;;;;;;5129558;27;20426;-86
2022/04/09 05:37:32;;;;;;;3.67;1.30;;;3.10;99.90;;;;;;5129435;27;20086;-86
2022/04/09 05:39:58;;;;;;;10.38;1.92;;;3.70;99.90;;;;;;5112814;27;20078;-86
2022/04/09 05:42:25;;;;;;;3.30;1.35;;;3.20;99.90;;;;;;5093976;27;20058;-83
2022/04/09 05:44:55;;;;;;;7.63;1.83;;;3.30;99.90;;;;;;5129830;27;20755;-86
2022/04/09 05:47:21;;;;;;;12.43;2.03;;;3.30;99.90;;;;;;5129996;27;20658;-87
2022/04/09 05:49:47;;;;;;;6.05;1.80;;;4.00;99.90;;;;;;5111950;27;20054;-86
2022/04/09 05:52:13;;;;;;;6.65;1.67;;;4.10;99.90;;;;;;5103008;28;20067;-85
2022/04/09 05:54:38;;;;;;;;;;;3.60;99.90;;;;;;5091745;28;20047;-86
2022/04/09 05:57:05;;;;;;;7.05;1.60;;;3.80;99.90;;;;;;5108596;28;19924;-86
2022/04/09 05:59:31;;;;;;;6.85;1.60;;;3.80;99.90;;;;;;5128760;27;20181;-86
2022/04/09 06:01:57;;;;;;;11.98;1.60;;;4.30;99.90;;;;;;5129516;27;20149;-86
2022/04/09 06:04:23;;;;;;;4.13;1.42;;;3.50;99.90;;;;;;5127657;27;20051;-83
2022/04/09 06:06:49;;;;;;;;;;;3.50;99.90;;;;;;5111497;27;20039;-85
2022/04/09 06:09:15;;;;;;;7.22;2.00;;;4.30;99.90;;;;;;5094866;27;19946;-86
2022/04/09 06:11:42;;;;;;;11.10;1.75;;;4.30;99.90;;;;;;5128966;27;20142;-85
2022/04/09 06:14:08;;;;;;;;;;;3.70;99.90;;;;;;5128280;27;20058;-85
2022/04/09 06:16:35;;;;;;;10.80;2.00;;;4.70;99.90;;;;;;5128909;27;19923;-86
2022/04/09 06:19:01;;;;;;;9.52;2.15;;;4.00;99.90;;;;;;5129496;27;20043;-86
2022/04/09 06:21:29;;;;;;;7.07;1.80;;;4.10;99.90;;;;;;5128014;27;20058;-85
2022/04/09 06:23:56;;;;;;;10.30;1.70;;;4.30;99.90;;;;;;5095616;27;20058;-86
2022/04/09 06:26:22;;;;;;;7.15;1.63;;;4.30;99.90;;;;;;5112017;28;20053;-86
2022/04/09 06:28:48;;;;;;;12.13;1.80;;;4.30;99.90;;;;;;5108832;28;20047;-85
2022/04/09 06:31:13;;;;;;;5.30;1.50;;;4.60;99.90;;;;;;5128716;28;20384;-85
2022/04/09 06:33:39;;;;;;;8.15;1.75;;;4.50;99.90;;;;;;5111274;28;20138;-85
2022/04/09 06:36:05;;;;;;;9.57;2.13;;;4.50;99.90;;;;;;5128806;28;20101;-86
2022/04/09 06:38:33;;;;;;;2.90;1.33;;;4.20;99.90;;;;;;5111342;28;20054;-85
2022/04/09 06:40:59;;;;;;;4.57;1.45;;;4.20;99.90;;;;;;5129000;28;20050;-87
2022/04/09 06:43:26;;;;;;;10.27;1.80;;;5.00;99.90;;;;;;5089904;28;20051;-86
2022/04/09 06:45:52;;;;;;;10.45;1.83;;;4.20;99.90;;;;;;5091166;28;20086;-89
2022/04/09 06:48:18;;;;;;;8.82;2.03;;;4.50;99.90;;;;;;5113586;28;20082;-84
2022/04/09 06:50:44;;;;;;;8.63;1.60;;;4.30;99.90;;;;;;5092322;28;20043;-86
2022/04/09 06:53:09;;;;;;;13.88;2.05;;;4.30;99.90;;;;;;5128684;28;20569;-86
2022/04/09 06:55:35;;;;;;;7.75;1.83;;;4.40;99.90;;;;;;5111424;28;20043;-86
2022/04/09 06:58:02;;;;;;;10.68;1.90;;;4.50;99.90;;;;;;5093489;28;20067;-86
2022/04/09 07:00:29;;;;;;;9.70;1.73;;;4.70;99.90;;;;;;5108362;28;20540;-83
2022/04/09 07:02:54;;;;;;;11.60;1.70;;;5.10;99.90;;;;;;5118605;28;20043;-87
2022/04/09 07:05:20;;;;;;;8.65;2.22;;;4.70;99.90;;;;;;5101002;28;20089;-85
2022/04/09 07:07:50;;;;;;;8.75;1.60;;;4.70;99.90;;;;;;5128238;28;20078;-85
2022/04/09 07:10:15;;;;;;;12.70;2.17;;;4.80;99.90;;;;;;5103723;28;20130;-87
2022/04/09 07:12:41;;;;;;;11.23;1.95;;;4.80;99.90;;;;;;5109891;28;20742;-86
2022/04/09 07:15:07;;;;;;;;;;;4.90;99.90;;;;;;5112084;28;20055;-86
2022/04/09 07:17:34;;;;;;;8.63;1.60;;;5.00;99.90;;;;;;5128636;28;19919;-86
2022/04/09 07:20:00;;;;;;;10.73;2.08;;;5.40;99.90;;;;;;5128451;28;20476;-86
2022/04/09 07:22:26;;;;;;;8.82;2.05;;;5.10;99.90;;;;;;5111655;28;20050;-87
2022/04/09 07:24:54;;;;;;;8.23;2.38;;;5.30;99.90;;;;;;5128538;28;20047;-85
2022/04/09 07:27:20;;;;;;;13.55;2.35;;;6.10;99.90;;;;;;5111647;28;20134;-89
2022/04/09 07:29:46;;;;;;;4.38;1.83;;;5.60;99.90;;;;;;5094474;28;20051;-88
2022/04/09 07:32:13;;;;;;;9.82;1.90;;;5.70;99.90;;;;;;5112337;27;20061;-86
2022/04/09 07:34:38;;;;;;;8.13;1.58;;;5.90;99.90;;;;;;5115158;27;20047;-89
2022/04/09 07:37:04;;;;;;;8.38;1.60;;;5.90;99.90;;;;;;5132668;27;20571;-87
2022/04/09 07:39:30;;;;;;;6.60;1.40;;;5.80;99.90;;;;;;5115638;27;20107;-85
2022/04/09 07:41:56;;;;;;;6.90;1.90;;;6.20;99.90;;;;;;5114284;27;20047;-87
2022/04/09 07:44:22;;;;;;;8.38;1.92;;;5.70;99.90;;;;;;5115487;27;20043;-86
2022/04/09 07:46:48;;;;;;;;;;;5.70;99.90;;;;;;5132682;27;20047;-88
2022/04/09 07:49:14;;;;;;;8.45;2.10;;;5.70;99.90;;;;;;5115493;27;19923;-88
2022/04/09 07:51:40;;;;;;;6.40;1.35;;;5.70;99.90;;;;;;5131727;27;20054;-88
2022/04/09 07:54:06;;;;;;;9.93;1.70;;;5.70;99.90;;;;;;5097085;27;20047;-88
2022/04/09 07:56:31;;;;;;;15.57;1.73;;;5.70;99.90;;;;;;5111954;28;20043;-84
2022/04/09 07:58:57;;;;;;;7.60;2.08;;;5.70;99.90;;;;;;5110547;28;20039;-88
2022/04/09 08:01:23;;;;;;;7.82;1.38;;;5.90;99.90;;;;;;5094827;28;20392;-89
2022/04/09 08:03:49;;;;;;;10.60;1.92;;;5.80;99.90;;;;;;5101597;27;20050;-87
2022/04/09 08:06:15;;;;;;;7.38;2.05;;;6.00;99.90;;;;;;5131980;27;20568;-88
2022/04/09 08:08:41;;;;;;;;;;;6.00;99.90;;;;;;5132061;27;20481;-87
2022/04/09 08:11:07;;;;;;;7.20;1.60;;;6.20;99.90;;;;;;5125274;27;19931;-86
2022/04/09 08:13:33;;;;;;;10.65;2.22;;;6.20;99.90;;;;;;5095893;27;20043;-83
2022/04/09 08:15:59;;;;;;;8.93;1.67;;;6.20;99.90;;;;;;5131820;27;20066;-86
2022/04/09 08:18:25;;;;;;;6.70;1.58;;;6.30;99.90;;;;;;5107463;27;20503;-86
2022/04/09 08:20:52;;;;;;;7.88;1.35;;;6.30;99.90;;;;;;5123505;27;20128;-87
2022/04/09 08:23:18;;;;;;;7.20;1.40;;;6.50;99.90;;;;;;5124597;27;20047;-86
2022/04/09 08:25:44;;;;;;;8.68;1.52;;;7.10;99.90;;;;;;5121027;27;20042;-85
2022/04/09 08:28:09;;;;;;;8.68;1.48;;;6.50;99.90;;;;;;5107002;27;20116;-86
2022/04/09 08:30:36;;;;;;;5.82;1.45;;;6.60;99.90;;;;;;5108849;27;20046;-84
2022/04/09 08:33:05;;;;;;;9.23;1.85;;;6.70;99.90;;;;;;5129321;27;20034;-88
2022/04/09 08:35:31;;;;;;;4.93;1.27;;;7.40;99.90;;;;;;5124488;27;20038;-87
2022/04/09 08:37:58;;;;;;;10.30;1.70;;;6.80;99.90;;;;;;5123093;27;20046;-89
2022/04/09 08:40:25;;;;;;;8.20;1.48;;;6.90;99.90;;;;;;5091431;27;20118;-87
2022/04/09 08:42:51;;;;;;;6.82;1.48;;;7.00;99.90;;;;;;5121504;27;20054;-87
2022/04/09 08:45:17;;;;;;;11.23;2.15;;;6.90;99.90;;;;;;5123336;27;20043;-87
2022/04/09 08:47:44;;;;;;;12.75;2.03;;;6.90;99.90;;;;;;5108433;27;20043;-88
2022/04/09 08:50:12;;;;;;;5.72;1.48;;;7.00;99.90;;;;;;5105861;27;20129;-86
2022/04/09 08:52:42;;;;;;;7.25;1.98;;;7.30;99.90;;;;;;5107688;27;20473;-85
2022/04/09 08:55:13;;;;;;;11.77;1.63;;;7.10;99.90;;;;;;5128728;27;20039;-87
2022/04/09 08:57:40;;;;;;;7.70;2.00;;;7.20;99.90;;;;;;5103949;27;20054;-86
2022/04/09 09:00:13;;;;;;;8.85;1.42;;;7.20;99.90;;;;;;5100755;27;20054;-87
2022/04/09 09:02:55;;;;;;;7.43;1.48;;;7.20;99.90;;;;;;5121054;27;20042;-88
2022/04/09 09:05:33;;;;;;;4.85;1.30;;;7.30;99.90;;;;;;5123089;27;20047;-88
2022/04/09 09:07:59;;;;;;;6.88;1.50;;;7.50;99.90;;;;;;5114565;27;20448;-87
2022/04/09 09:10:25;;;;;;;;;;;7.50;99.90;;;;;;5116110;27;20047;-89
2022/04/09 09:13:05;;;;;;;5.65;1.50;;;7.40;99.90;;;;;;5123262;27;20372;-90
2022/04/09 09:15:46;;;;;;;5.63;1.30;;;7.40;99.90;;;;;;5126506;27;20061;-89
2022/04/09 09:18:25;;;;;;;5.95;1.25;;;7.40;99.90;;;;;;5115383;27;20047;-89
2022/04/09 09:20:53;;;;;;;10.02;1.60;;;7.30;99.90;;;;;;5114482;27;20058;-90
2022/04/09 09:23:31;;;;;;;10.15;1.30;;;7.40;99.90;;;;;;5098781;27;20047;-91
2022/04/09 09:25:58;;;;;;;5.95;1.25;;;7.50;99.90;;;;;;5115274;27;20762;-89
2022/04/09 09:28:26;;;;;;;6.15;1.15;;;7.60;99.90;;;;;;5114293;27;20055;-90
2022/04/09 09:30:52;;;;;;;4.88;1.20;;;8.00;99.90;;;;;;5114958;27;20055;-91
2022/04/09 09:33:18;;;;;;;4.10;1.05;;;7.60;99.90;;;;;;5098360;27;20506;-90
2022/04/09 09:36:02;;;;;;;4.72;1.10;;;7.60;99.90;;;;;;5114403;27;20049;-90
2022/04/09 09:38:29;;;;;;;5.50;1.35;;;7.70;99.90;;;;;;5134449;27;20073;-89
2022/04/09 09:40:58;;;;;;;5.78;1.40;;;8.40;99.90;;;;;;5135232;27;20043;-91
2022/04/09 09:43:26;;;;;;;8.38;2.35;;;7.90;99.90;;;;;;5117451;27;20046;-90
2022/04/09 09:45:53;;;;;;;6.65;1.10;;;7.90;99.90;;;;;;5117981;27;20043;-89
2022/04/09 09:48:21;;;;;;;3.13;0.90;;;8.00;99.90;;;;;;5118789;27;20173;-90
2022/04/09 09:50:47;;;;;;;3.33;1.02;;;8.00;99.90;;;;;;5117423;27;20054;-90
2022/04/09 09:53:14;;;;;;;;;;;8.00;99.90;;;;;;5135755;27;20492;-89
2022/04/09 09:55:44;;;;;;;7.60;1.55;;;8.30;99.90;;;;;;5134803;27;19975;-85
2022/04/09 09:58:16;;;;;;;7.68;1.20;;;8.10;99.90;;;;;;5116714;27;20065;-87
2022/04/09 10:00:43;;;;;;;6.47;1.30;;;8.20;99.90;;;;;;5132444;27;20077;-84
2022/04/09 10:03:13;;;;;;;5.95;1.20;;;9.00;99.90;;;;;;5117112;27;20118;-90
2022/04/09 10:05:40;;;;;;;7.00;1.25;;;8.20;99.90;;;;;;5128923;27;20042;-89
2022/04/09 10:08:07;;;;;;;3.65;1.17;;;8.30;99.90;;;;;;5117415;27;20074;-90
2022/04/09 10:10:37;;;;;;;5.22;1.20;;;8.40;99.90;;;;;;5118036;27;20518;-89
2022/04/09 10:13:07;;;;;;;6.38;1.02;;;8.60;99.90;;;;;;5133218;27;20070;-90
2022/04/09 10:15:34;;;;;;;6.00;1.17;;;8.70;99.90;;;;;;5118222;27;20047;-90
2022/04/09 10:18:01;;;;;;;6.80;1.63;;;8.60;99.90;;;;;;5134604;27;20047;-89
2022/04/09 10:20:29;;;;;;;4.60;1.20;;;8.50;99.90;;;;;;5133950;27;20475;-90
2022/04/09 10:22:58;;;;;;;9.70;1.73;;;8.40;99.90;;;;;;5134408;27;20505;-88
2022/04/09 10:25:28;;;;;;;4.75;1.20;;;8.40;99.90;;;;;;5134468;27;20075;-87
2022/04/09 10:28:00;;;;;;;10.43;1.40;;;8.50;99.90;;;;;;5112488;28;20047;-89
2022/04/09 10:30:26;;;;;;;10.38;1.33;;;8.60;99.90;;;;;;5106773;27;20046;-89
2022/04/09 10:32:57;;;;;;;6.90;1.42;;;8.60;99.90;;;;;;5134476;27;20042;-89
2022/04/09 10:35:39;;;;;;;9.55;1.42;;;8.60;99.90;;;;;;5130156;27;20106;-88
2022/04/09 10:38:08;;;;;;;11.73;2.13;;;8.60;99.90;;;;;;5116672;27;20111;-88
2022/04/09 10:40:34;;;;;;;3.72;1.02;;;8.20;99.90;;;;;;5132889;27;20449;-85
2022/04/09 10:43:01;;;;;;;;;;;7.30;99.90;;;;;;5132011;27;20055;-86
2022/04/09 10:45:30;;;;;;;4.15;1.20;;;6.90;99.90;;;;;;5131402;27;19930;-86
2022/04/09 10:48:10;;;;;;;7.50;1.23;;;6.10;99.90;;;;;;5127237;27;20057;-86
2022/04/09 10:51:09;;;;;;;3.45;1.08;;;5.80;99.90;;;;;;5133041;27;20039;-87
2022/04/09 10:53:35;;;;;;;7.85;1.30;;;5.80;99.90;;;;;;5117857;27;20130;-88
2022/04/09 10:56:14;;;;;;;3.70;1.00;;;6.80;99.90;;;;;;5133365;27;20042;-87
2022/04/09 10:59:04;;;;;;;4.45;1.17;;;5.90;99.90;;;;;;5131037;27;20042;-85
2022/04/09 11:01:48;;;;;;;5.57;1.70;;;6.00;99.90;;;;;;5130499;27;20042;-85
2022/04/09 11:04:34;;;;;;;7.22;1.27;;;6.20;99.90;;;;;;5129313;27;20039;-87
2022/04/09 11:07:15;;;;;;;6.65;1.95;;;6.70;99.90;;;;;;5126968;27;20047;-86
2022/04/09 11:09:54;;;;;;;8.50;1.30;;;7.20;99.90;;;;;;5120555;27;20056;-87
2022/04/09 11:12:24;;;;;;;8.95;1.60;;;7.60;99.90;;;;;;5137153;27;20052;-87
2022/04/09 11:15:01;;;;;;;5.50;1.25;;;7.50;99.90;;;;;;5126736;27;20108;-87
2022/04/09 11:17:30;;;;;;;3.78;0.95;;;7.30;99.90;;;;;;5115655;27;20051;-85
2022/04/09 11:20:14;;;;;;;6.15;1.20;;;6.70;99.90;;;;;;5098673;27;20047;-84
2022/04/09 11:22:41;;;;;;;2.58;0.80;;;6.10;99.90;;;;;;5120035;27;20479;-84
2022/04/09 11:25:30;;;;;;;6.57;1.30;;;5.70;99.90;;;;;;5113864;27;20122;-84
2022/04/09 11:28:07;;;;;;;5.05;1.15;;;5.30;99.90;;;;;;5125476;27;20089;-83
2022/04/09 11:30:33;;;;;;;5.68;1.17;;;5.00;99.90;;;;;;5118805;27;20099;-84
2022/04/09 11:32:59;;;;;;;7.13;1.17;;;4.90;99.90;;;;;;5124733;27;20046;-85
2022/04/09 11:35:25;;;;;;;2.05;0.88;;;4.90;99.90;;;;;;5096154;27;20050;-85
2022/04/09 11:37:52;;;;;;;5.20;1.60;;;4.90;99.90;;;;;;5119088;27;20039;-86
2022/04/09 11:40:21;;;;;;;5.25;1.10;;;5.10;99.90;;;;;;5114803;27;20042;-86
2022/04/09 11:42:49;;;;;;;7.25;1.20;;;5.50;99.90;;;;;;5100957;27;20592;-83
2022/04/09 11:45:23;;;;;;;8.25;1.35;;;7.00;99.90;;;;;;5134731;27;20134;-86
2022/04/09 11:47:50;;;;;;;6.45;1.42;;;6.90;99.90;;;;;;5115926;27;20073;-83
2022/04/09 11:50:17;;;;;;;9.20;1.50;;;6.60;99.90;;;;;;5114712;27;20146;-85
2022/04/09 11:52:43;;;;;;;5.50;1.20;;;6.90;99.90;;;;;;5134454;27;20403;-85
2022/04/09 11:55:14;;;;;;;;;;;7.00;99.90;;;;;;5113510;27;20200;-86
2022/04/09 11:57:53;;;;;;;11.13;1.52;;;7.20;99.90;;;;;;5135060;27;20329;-85
2022/04/09 12:00:25;;;;;;;5.18;1.48;;;7.50;99.90;;;;;;5136822;27;20051;-85
2022/04/09 12:02:51;;;;;;;7.63;1.38;;;8.10;99.90;;;;;;5135834;27;20047;-84
2022/04/09 12:05:17;;;;;;;4.45;1.10;;;8.20;99.90;;;;;;5134455;27;20137;-87
2022/04/09 12:07:44;;;;;;;7.80;1.38;;;8.40;99.90;;;;;;5101883;27;20082;-87
2022/04/09 12:10:27;;;;;;;3.88;1.38;;;8.10;99.90;;;;;;5135614;27;20186;-85
2022/04/09 12:13:01;;;;;;;4.60;1.20;;;7.90;99.90;;;;;;5117163;27;20057;-86
2022/04/09 12:15:34;;;;;;;6.22;1.50;;;7.70;99.90;;;;;;5136303;27;20055;-88
2022/04/09 12:18:01;;;;;;;6.22;1.20;;;7.70;99.90;;;;;;5135068;27;20043;-86
2022/04/09 12:20:35;;;;;;;5.75;1.65;;;7.80;99.90;;;;;;5119204;27;20386;-87
2022/04/09 12:23:03;;;;;;;8.85;1.77;;;8.10;99.90;;;;;;5135777;27;20058;-88
2022/04/09 12:25:42;;;;;;;6.68;1.30;;;8.40;99.90;;;;;;5136329;27;20183;-87
2022/04/09 12:28:40;;;;;;;4.70;1.10;;;8.60;99.90;;;;;;5133848;27;20072;-87
2022/04/09 12:31:24;;;;;;;6.18;1.38;;;8.80;99.90;;;;;;5079589;27;20183;-88
2022/04/09 12:34:00;;;;;;;6.10;1.33;;;9.20;99.90;;;;;;5115868;27;20395;-86
2022/04/09 12:36:25;;;;;;;3.67;1.13;;;9.40;99.90;;;;;;5098524;27;20095;-88
2022/04/09 12:38:51;;;;;;;6.65;1.35;;;9.50;99.90;;;;;;5115526;27;20047;-83
2022/04/09 12:41:17;;;;;;;6.43;1.27;;;9.50;99.90;;;;;;5115254;27;20480;-87
2022/04/09 12:43:43;;;;;;;4.03;1.10;;;9.70;99.90;;;;;;5097259;27;20051;-87
2022/04/09 12:46:16;;;;;;;4.00;1.30;;;10.00;99.90;;;;;;5117806;27;20047;-87
2022/04/09 12:48:51;;;;;;;8.38;1.25;;;10.00;99.90;;;;;;5135945;27;20047;-86
2022/04/09 12:51:19;;;;;;;8.70;1.53;;;10.20;99.90;;;;;;5117280;27;20518;-88
2022/04/09 12:53:55;;;;;;;5.95;1.13;;;10.40;99.90;;;;;;5118209;27;20049;-86
2022/04/09 12:56:21;;;;;;;6.68;1.10;;;10.50;99.90;;;;;;5135589;27;20039;-87
2022/04/09 12:58:47;;;;;;;6.88;1.30;;;10.30;99.90;;;;;;5117395;27;20043;-88
2022/04/09 13:01:13;;;;;;;4.63;1.40;;;9.80;99.90;;;;;;5117505;27;20039;-86